Bird End, United Kingdom
Current Conditions -  °F | °C
As of 4:50 PM on Tuesday 27 Jan 2015 (Local Time) from EGBB Reporting Station
Broken Clouds Broken Clouds  
Wind Chill: 41°   Ceiling: 3300
Heat Index: 45°   Visibility: 6mi
Dew Point: 36°   Wind: 6mph
Humidity: 71%   Direction: 240°WSW
Pressure: 30.21"   Gusts: NA
Location:  52.53°N, 1.99°W
Report Text: EGBB 271650Z 24005KT 220V280 9999 SCT023 BKN033 07/02 Q1023
Loading
Personal Weather Stations






























Interactive Weather Map New forecast layout! Learn more

10-Day Weather Forecast

Advertisements
Track Severe Weather on mobile